Time;durP1;ratioP1;P1;durP2;ratioP2;P2;SDS_P1;SDS_P2;PMS_P1;PMS_P2;Temp;Humidity;BMP_temperature;BMP_pressure;BME280_temperature;BME280_humidity;BME280_pressure;Samples;Min_cycle;Max_cycle;Signal;HPM_P1;HPM_P2
2022/08/28 00:01:22;;;;;;;22.10;15.30;;;19.50;43.00;;;;;;4979301;28;20494;-71
2022/08/28 00:03:49;;;;;;;16.27;14.00;;;19.50;42.80;;;;;;4988653;28;20487;-71
2022/08/28 00:06:15;;;;;;;19.77;14.67;;;19.50;42.80;;;;;;4983203;28;20472;-71
2022/08/28 00:08:43;;;;;;;17.03;14.03;;;19.50;42.80;;;;;;4979604;28;20480;-71
2022/08/28 00:11:10;;;;;;;17.83;14.50;;;19.50;42.90;;;;;;4980149;28;20477;-71
2022/08/28 00:13:37;;;;;;;15.47;12.93;;;19.60;42.80;;;;;;4979633;28;20465;-71
2022/08/28 00:16:04;;;;;;;16.27;13.53;;;19.60;42.80;;;;;;4983855;28;20945;-71
2022/08/28 00:18:31;;;;;;;21.13;13.70;;;19.60;42.70;;;;;;4983550;28;20499;-71
2022/08/28 00:20:59;;;;;;;20.33;14.80;;;19.60;42.80;;;;;;4980024;28;20468;-70
2022/08/28 00:23:26;;;;;;;18.60;14.20;;;19.60;42.80;;;;;;4978189;28;20477;-70
2022/08/28 00:25:55;;;;;;;19.13;13.40;;;19.60;42.60;;;;;;4981121;28;20468;-70
2022/08/28 00:28:20;;;;;;;15.90;13.47;;;19.60;42.60;;;;;;4982569;28;20492;-71
2022/08/28 00:30:50;;;;;;;15.90;13.70;;;19.60;42.60;;;;;;4980105;28;20485;-71
2022/08/28 00:33:21;;;;;;;17.27;12.63;;;19.60;42.50;;;;;;4981103;28;20208;-71
2022/08/28 00:35:49;;;;;;;19.80;13.77;;;19.60;42.50;;;;;;4982430;28;21052;-71
2022/08/28 00:38:18;;;;;;;15.10;12.97;;;19.60;42.30;;;;;;4982636;28;21132;-71
2022/08/28 00:40:47;;;;;;;17.57;13.60;;;19.60;42.20;;;;;;4984303;28;20465;-71
2022/08/28 00:43:25;;;;;;;16.90;13.63;;;19.50;42.30;;;;;;4982331;28;20457;-71
2022/08/28 00:45:52;;;;;;;18.03;14.10;;;19.50;42.60;;;;;;4981808;28;20461;-70
2022/08/28 00:48:18;;;;;;;17.70;12.87;;;19.40;42.50;;;;;;4981519;28;20488;-70
2022/08/28 00:53:30;;;;;;;22.13;14.40;;;19.40;42.30;;;;;;4981632;28;20460;-70
2022/08/28 00:55:58;;;;;;;16.43;14.13;;;19.40;43.00;;;;;;4982557;28;20890;-71
2022/08/28 00:58:26;;;;;;;16.67;13.77;;;19.30;42.30;;;;;;4985742;28;20861;-70
2022/08/28 01:00:53;;;;;;;16.33;13.03;;;19.30;42.30;;;;;;4990964;28;20484;-70
2022/08/28 01:03:20;;;;;;;16.73;13.40;;;19.20;42.30;;;;;;4982100;28;20579;-71
2022/08/28 01:05:48;;;;;;;19.87;15.37;;;19.20;42.30;;;;;;4981671;28;20465;-70
2022/08/28 01:08:16;;;;;;;16.87;13.17;;;19.20;42.30;;;;;;4982603;28;20502;-71
2022/08/28 01:10:46;;;;;;;19.77;14.43;;;19.20;42.30;;;;;;4983802;28;20461;-71
2022/08/28 01:13:15;;;;;;;19.77;14.67;;;19.10;42.30;;;;;;4982349;28;20465;-71
2022/08/28 01:15:43;;;;;;;19.07;14.67;;;19.10;42.80;;;;;;4980125;28;20467;-71
2022/08/28 01:18:14;;;;;;;17.23;14.73;;;19.10;42.40;;;;;;4981668;28;20496;-70
2022/08/28 01:20:46;;;;;;;19.10;13.93;;;19.10;42.50;;;;;;4981839;28;21249;-71
2022/08/28 01:23:33;;;;;;;17.37;14.17;;;19.10;42.70;;;;;;4983141;28;20461;-70
2022/08/28 01:26:02;;;;;;;20.20;15.43;;;19.10;42.50;;;;;;4977550;28;20461;-71
2022/08/28 01:28:28;;;;;;;17.20;15.37;;;19.10;42.70;;;;;;4980776;28;20465;-71
2022/08/28 01:30:55;;;;;;;17.63;13.87;;;19.10;42.80;;;;;;4981660;28;20851;-70
2022/08/28 01:33:22;;;;;;;16.83;13.90;;;19.10;42.90;;;;;;4980499;28;20468;-71
2022/08/28 01:35:49;;;;;;;18.90;16.00;;;19.10;42.90;;;;;;4982046;28;20461;-71
2022/08/28 01:38:17;;;;;;;19.37;14.90;;;19.20;42.90;;;;;;4978677;28;20856;-70
2022/08/28 01:40:47;;;;;;;17.77;14.97;;;19.10;42.90;;;;;;4980202;28;20464;-70
2022/08/28 01:43:18;;;;;;;19.73;15.30;;;19.20;43.00;;;;;;4984994;28;21202;-71
2022/08/28 01:45:51;;;;;;;19.73;15.33;;;19.20;43.20;;;;;;4979491;28;20466;-71
2022/08/28 01:48:19;;;;;;;20.13;16.50;;;19.20;43.10;;;;;;4983785;28;21108;-71
2022/08/28 01:50:46;;;;;;;17.80;15.40;;;19.20;43.20;;;;;;4983349;28;20468;-71
2022/08/28 01:53:16;;;;;;;19.73;16.10;;;19.20;43.30;;;;;;4990565;28;20557;-70
2022/08/28 01:55:43;;;;;;;18.67;15.80;;;19.20;43.40;;;;;;4993621;28;20460;-71
2022/08/28 01:58:11;;;;;;;21.80;16.43;;;19.30;43.50;;;;;;4990309;28;20496;-71
2022/08/28 02:00:40;;;;;;;19.10;16.63;;;19.30;43.70;;;;;;4981226;28;20491;-71
2022/08/28 02:03:06;;;;;;;21.30;16.17;;;19.30;43.60;;;;;;4983751;28;21127;-71
2022/08/28 02:05:34;;;;;;;18.50;15.57;;;19.30;43.60;;;;;;4983001;28;20460;-71
2022/08/28 02:08:03;;;;;;;20.87;15.83;;;19.30;43.50;;;;;;4985008;28;20503;-71
2022/08/28 02:10:33;;;;;;;22.80;16.87;;;19.40;43.70;;;;;;4986181;28;20525;-71
2022/08/28 02:13:00;;;;;;;18.17;15.40;;;19.40;43.60;;;;;;4982910;28;20549;-71
2022/08/28 02:15:30;;;;;;;18.87;15.97;;;19.40;43.70;;;;;;4989409;28;20461;-71
2022/08/28 02:17:59;;;;;;;21.63;14.33;;;19.40;43.60;;;;;;4983775;28;20476;-70
2022/08/28 02:20:26;;;;;;;25.70;16.30;;;19.40;43.50;;;;;;4984901;28;20468;-70
2022/08/28 02:22:53;;;;;;;18.90;16.13;;;19.40;43.60;;;;;;4984789;28;20518;-70
2022/08/28 02:25:21;;;;;;;19.30;16.03;;;19.50;43.60;;;;;;4984755;28;20461;-70
2022/08/28 02:27:48;;;;;;;21.57;17.47;;;19.50;43.70;;;;;;4982894;28;20476;-70
2022/08/28 02:30:17;;;;;;;24.60;18.10;;;19.50;43.60;;;;;;4981409;28;20456;-70
2022/08/28 02:32:44;;;;;;;22.50;18.40;;;19.60;43.70;;;;;;4984276;28;20481;-70
2022/08/28 02:35:15;;;;;;;21.40;18.97;;;19.60;43.60;;;;;;4982888;28;20461;-70
2022/08/28 02:37:43;;;;;;;22.10;18.70;;;19.60;43.90;;;;;;4983805;28;21161;-71
2022/08/28 02:40:10;;;;;;;21.57;17.90;;;19.60;43.70;;;;;;4985583;28;20469;-70
2022/08/28 02:42:37;;;;;;;21.93;18.20;;;19.60;43.60;;;;;;4985111;28;20851;-70
2022/08/28 02:45:04;;;;;;;24.93;17.87;;;19.60;43.50;;;;;;4985274;28;20476;-70
2022/08/28 02:47:31;;;;;;;23.40;17.37;;;19.60;43.50;;;;;;4982786;28;20489;-70
2022/08/28 02:49:58;;;;;;;22.53;19.77;;;19.70;43.80;;;;;;4984566;28;20965;-70
2022/08/28 02:52:26;;;;;;;21.70;17.60;;;19.70;43.40;;;;;;4982485;28;20479;-70
2022/08/28 02:54:53;;;;;;;21.37;18.17;;;19.70;43.60;;;;;;5008897;28;20456;-70
2022/08/28 02:57:19;;;;;;;21.63;17.50;;;19.70;43.40;;;;;;4984433;28;20477;-71
2022/08/28 02:59:46;;;;;;;23.67;18.97;;;19.80;43.20;;;;;;4992349;28;20480;-70
2022/08/28 03:02:13;;;;;;;22.07;17.90;;;19.80;43.10;;;;;;4979706;28;20466;-70
2022/08/28 03:04:40;;;;;;;20.60;15.63;;;19.90;43.00;;;;;;4985333;28;20465;-70
2022/08/28 03:07:08;;;;;;;18.97;16.37;;;19.90;42.90;;;;;;4993779;22;20493;-70
2022/08/28 03:09:36;;;;;;;20.10;15.60;;;19.90;42.90;;;;;;4986872;28;20466;-70
2022/08/28 03:12:04;;;;;;;27.40;18.27;;;19.80;42.80;;;;;;4986410;28;20477;-70
2022/08/28 03:14:31;;;;;;;20.90;17.37;;;19.90;42.90;;;;;;4988970;28;20519;-70
2022/08/28 03:16:57;;;;;;;18.93;15.67;;;19.80;43.60;;;;;;4961952;28;20495;-70
2022/08/28 03:19:24;;;;;;;20.47;15.10;;;19.80;43.10;;;;;;4957218;28;20470;-70
2022/08/28 03:21:51;;;;;;;20.97;16.83;;;19.80;42.90;;;;;;4965803;28;20458;-71
2022/08/28 03:24:17;;;;;;;19.57;16.93;;;19.80;42.90;;;;;;4969806;28;20476;-70
2022/08/28 03:26:46;;;;;;;25.43;16.90;;;19.80;43.00;;;;;;4971477;28;20489;-71
2022/08/28 03:29:13;;;;;;;21.83;17.10;;;19.80;43.20;;;;;;4965341;28;20468;-70
2022/08/28 03:31:40;;;;;;;20.87;17.73;;;19.80;43.10;;;;;;4962068;28;20486;-70
2022/08/28 03:34:07;;;;;;;22.37;17.50;;;19.80;43.20;;;;;;4966983;28;20462;-70
2022/08/28 03:36:34;;;;;;;25.10;19.07;;;19.80;43.20;;;;;;4967232;28;21027;-70
2022/08/28 03:39:03;;;;;;;27.93;19.13;;;19.80;43.20;;;;;;4969432;28;20461;-70
2022/08/28 03:41:31;;;;;;;22.23;17.87;;;19.80;43.30;;;;;;4965450;28;20470;-70
2022/08/28 03:44:01;;;;;;;22.63;19.23;;;19.80;43.10;;;;;;4967832;28;20466;-70
2022/08/28 03:46:31;;;;;;;22.33;17.60;;;19.80;43.10;;;;;;4964541;28;20500;-70
2022/08/28 03:48:58;;;;;;;22.70;18.40;;;19.80;43.10;;;;;;4967973;28;20490;-70
2022/08/28 03:51:28;;;;;;;24.70;19.43;;;19.70;43.00;;;;;;4972100;28;20473;-70
2022/08/28 03:53:57;;;;;;;23.90;19.30;;;19.80;42.90;;;;;;4968981;28;20480;-71
2022/08/28 03:56:26;;;;;;;22.33;18.47;;;19.80;43.00;;;;;;4961150;28;20489;-70
2022/08/28 03:58:56;;;;;;;25.43;19.60;;;19.80;43.00;;;;;;4964188;28;20832;-70
2022/08/28 04:01:24;;;;;;;35.73;18.87;;;19.80;43.10;;;;;;4952471;28;20486;-70
2022/08/28 04:03:51;;;;;;;23.13;18.70;;;19.80;43.00;;;;;;4960479;28;20462;-70
2022/08/28 04:06:19;;;;;;;23.77;18.27;;;19.80;43.00;;;;;;4968254;28;21701;-70
2022/08/28 04:08:46;;;;;;;23.00;17.90;;;19.80;43.00;;;;;;4964367;28;22778;-70
2022/08/28 04:11:13;;;;;;;24.60;18.97;;;19.80;43.00;;;;;;4967262;28;20472;-70
2022/08/28 04:13:41;;;;;;;22.60;18.23;;;19.80;42.90;;;;;;4968663;28;21175;-70
2022/08/28 04:16:10;;;;;;;26.23;18.73;;;19.80;43.00;;;;;;4974348;28;20491;-70
2022/08/28 04:18:41;;;;;;;23.50;19.40;;;19.80;43.00;;;;;;4973897;28;20466;-70
2022/08/28 04:21:12;;;;;;;23.33;18.00;;;19.70;43.00;;;;;;4958387;28;20458;-70
2022/08/28 04:23:41;;;;;;;21.87;18.43;;;19.70;43.00;;;;;;4968489;28;20472;-70
2022/08/28 04:26:11;;;;;;;22.13;18.97;;;19.70;43.10;;;;;;4976697;28;20522;-70
2022/08/28 04:28:38;;;;;;;22.80;18.63;;;19.70;43.20;;;;;;4979394;28;20458;-70
2022/08/28 04:31:06;;;;;;;26.30;18.70;;;19.70;43.10;;;;;;4959841;28;20493;-70
2022/08/28 04:33:33;;;;;;;28.20;19.27;;;19.70;43.00;;;;;;4963771;28;20486;-70
2022/08/28 04:36:05;;;;;;;22.00;17.97;;;19.70;42.90;;;;;;4969932;28;20485;-70
2022/08/28 04:38:32;;;;;;;25.23;18.53;;;19.70;43.10;;;;;;4966826;28;20838;-70
2022/08/28 04:40:59;;;;;;;27.73;19.47;;;19.70;42.90;;;;;;4964933;28;20477;-70
2022/08/28 04:43:26;;;;;;;24.77;18.87;;;19.70;42.90;;;;;;4971475;28;20454;-70
2022/08/28 04:45:53;;;;;;;23.20;20.17;;;19.70;43.20;;;;;;4966593;28;20491;-70
2022/08/28 04:48:19;;;;;;;27.87;20.80;;;19.70;43.10;;;;;;4974077;28;20506;-70
2022/08/28 04:50:48;;;;;;;24.90;20.70;;;19.70;42.90;;;;;;4973305;28;20453;-70
2022/08/28 04:53:18;;;;;;;24.53;19.40;;;19.80;42.80;;;;;;4970086;28;20482;-70
2022/08/28 04:55:47;;;;;;;25.43;18.50;;;19.80;42.70;;;;;;4961711;28;20481;-70
2022/08/28 04:58:14;;;;;;;25.33;18.20;;;19.80;42.60;;;;;;4968542;28;20469;-70
2022/08/28 05:00:42;;;;;;;26.80;21.20;;;19.90;42.80;;;;;;4970593;28;20476;-70
2022/08/28 05:03:10;;;;;;;25.80;20.10;;;19.90;42.80;;;;;;4969863;28;20448;-70
2022/08/28 05:05:43;;;;;;;23.67;19.70;;;19.90;42.80;;;;;;4964221;28;20494;-70
2022/08/28 05:08:10;;;;;;;23.33;20.43;;;19.80;42.80;;;;;;4969402;28;20983;-70
2022/08/28 05:10:39;;;;;;;24.03;19.90;;;19.90;42.60;;;;;;4961200;28;20458;-70
2022/08/28 05:13:07;;;;;;;24.80;20.00;;;19.90;42.60;;;;;;4965895;28;20489;-70
2022/08/28 05:15:33;;;;;;;23.73;18.70;;;19.90;42.60;;;;;;4970373;28;20621;-70
2022/08/28 05:18:00;;;;;;;26.33;20.60;;;19.90;42.60;;;;;;4966442;28;20484;-70
2022/08/28 05:20:27;;;;;;;21.30;18.57;;;19.90;43.20;;;;;;4966214;28;20867;-70
2022/08/28 05:22:54;;;;;;;21.30;18.80;;;19.90;42.60;;;;;;4969723;28;20485;-70
2022/08/28 05:25:20;;;;;;;26.87;18.70;;;20.00;42.40;;;;;;4967197;28;20481;-70
2022/08/28 05:27:50;;;;;;;26.60;20.60;;;20.00;42.40;;;;;;4976326;28;20464;-69
2022/08/28 05:30:17;;;;;;;23.90;19.00;;;20.00;42.60;;;;;;4970581;28;20474;-71
2022/08/28 05:32:44;;;;;;;26.03;21.17;;;20.00;42.60;;;;;;4961331;28;20485;-70
2022/08/28 05:35:11;;;;;;;25.17;19.77;;;20.00;42.50;;;;;;4972518;28;20482;-70
2022/08/28 05:37:38;;;;;;;23.60;18.67;;;20.00;42.60;;;;;;4968456;28;20565;-70
2022/08/28 05:40:05;;;;;;;24.33;19.30;;;20.00;42.60;;;;;;4978754;28;20526;-70
2022/08/28 05:42:33;;;;;;;25.33;19.87;;;20.00;42.60;;;;;;4978209;28;20485;-70
2022/08/28 05:45:01;;;;;;;24.50;19.73;;;20.10;42.40;;;;;;4972520;28;20461;-71
2022/08/28 05:47:31;;;;;;;25.67;20.60;;;20.10;42.40;;;;;;4965774;28;20470;-70
2022/08/28 05:49:58;;;;;;;25.10;19.50;;;20.10;42.40;;;;;;4973039;28;20472;-70
2022/08/28 05:52:25;;;;;;;24.37;19.33;;;20.10;42.40;;;;;;4970346;28;20477;-71
2022/08/28 05:54:52;;;;;;;23.63;18.97;;;20.10;42.40;;;;;;4976173;28;20462;-70
2022/08/28 05:57:18;;;;;;;23.30;20.10;;;20.10;42.30;;;;;;4970389;28;20841;-71
2022/08/28 05:59:45;;;;;;;27.73;20.80;;;20.10;42.20;;;;;;4962986;28;20469;-70
2022/08/28 06:02:13;;;;;;;25.43;20.30;;;20.10;42.20;;;;;;4970770;28;20490;-70
2022/08/28 06:04:40;;;;;;;22.30;18.60;;;20.10;42.20;;;;;;4969732;28;20472;-70
2022/08/28 06:07:09;;;;;;;23.20;19.13;;;20.10;42.20;;;;;;4985922;28;20496;-70
2022/08/28 06:09:37;;;;;;;25.70;20.50;;;20.10;42.20;;;;;;4979893;28;20500;-70
2022/08/28 06:12:04;;;;;;;21.80;18.90;;;20.10;42.10;;;;;;4980468;28;21077;-70
2022/08/28 06:14:32;;;;;;;23.97;19.50;;;20.10;42.10;;;;;;4969367;28;20489;-70
2022/08/28 06:16:59;;;;;;;20.37;18.17;;;20.20;42.00;;;;;;4969617;28;20495;-70
2022/08/28 06:19:29;;;;;;;21.60;18.00;;;20.20;41.90;;;;;;4971783;28;20461;-70
2022/08/28 06:21:57;;;;;;;23.87;18.50;;;20.30;41.80;;;;;;4970168;28;20473;-70
2022/08/28 06:24:25;;;;;;;23.60;19.13;;;20.30;41.80;;;;;;4981166;28;20460;-70
2022/08/28 06:26:52;;;;;;;22.33;19.63;;;20.30;41.60;;;;;;4977064;28;20966;-70
2022/08/28 06:29:21;;;;;;;21.93;18.70;;;20.30;41.60;;;;;;4965825;28;20496;-70
2022/08/28 06:31:52;;;;;;;22.63;18.03;;;20.40;41.60;;;;;;4975091;28;20520;-70
2022/08/28 06:34:19;;;;;;;25.50;17.90;;;20.40;41.50;;;;;;4967049;28;20493;-69
2022/08/28 06:36:47;;;;;;;20.77;17.00;;;20.40;41.40;;;;;;4965231;28;21321;-70
2022/08/28 06:39:14;;;;;;;25.53;19.00;;;20.40;41.30;;;;;;4975727;28;20972;-70
2022/08/28 06:41:42;;;;;;;20.87;17.80;;;20.50;41.20;;;;;;4970078;28;20466;-70
2022/08/28 06:44:10;;;;;;;24.87;19.10;;;20.50;41.00;;;;;;4963056;28;20519;-70
2022/08/28 06:46:37;;;;;;;19.40;16.70;;;20.60;40.80;;;;;;4972458;28;20539;-70
2022/08/28 06:49:06;;;;;;;19.70;17.17;;;20.60;40.50;;;;;;4966330;28;20461;-70
2022/08/28 06:51:33;;;;;;;21.07;16.70;;;20.70;40.20;;;;;;4989919;28;20469;-70
2022/08/28 06:54:01;;;;;;;22.77;18.20;;;20.70;40.00;;;;;;4964579;28;20939;-70
2022/08/28 06:56:28;;;;;;;22.83;18.80;;;20.70;40.00;;;;;;4965536;28;20487;-70
2022/08/28 06:58:57;;;;;;;20.03;16.50;;;20.80;39.90;;;;;;4962907;28;20497;-70
2022/08/28 07:01:27;;;;;;;18.97;16.83;;;20.80;39.70;;;;;;4975607;28;20974;-70
2022/08/28 07:03:57;;;;;;;23.00;17.70;;;20.90;39.60;;;;;;4976194;28;20453;-72
2022/08/28 07:06:24;;;;;;;24.00;18.30;;;21.00;39.50;;;;;;4990505;28;20996;-72
2022/08/28 07:08:51;;;;;;;20.20;17.37;;;21.10;39.20;;;;;;4962865;28;20466;-71
2022/08/28 07:11:23;;;;;;;22.83;16.77;;;21.20;39.00;;;;;;4961051;28;20461;-72
2022/08/28 07:13:51;;;;;;;20.57;15.80;;;21.30;38.60;;;;;;4959205;28;20550;-71
2022/08/28 07:16:19;;;;;;;20.33;16.30;;;21.30;38.50;;;;;;4965705;28;20492;-71
2022/08/28 07:18:47;;;;;;;21.30;16.97;;;21.30;38.20;;;;;;4970008;28;20450;-75
2022/08/28 07:21:14;;;;;;;21.90;18.27;;;21.30;38.00;;;;;;4970331;28;20460;-68
2022/08/28 07:23:42;;;;;;;17.97;15.43;;;21.40;37.70;;;;;;4978199;28;20465;-69
2022/08/28 07:26:12;;;;;;;21.10;16.63;;;21.40;37.60;;;;;;4969637;28;20479;-69
2022/08/28 07:28:41;;;;;;;22.20;16.40;;;21.50;37.40;;;;;;4971840;28;20465;-71
2022/08/28 07:31:10;;;;;;;23.73;16.60;;;21.60;37.20;;;;;;4998754;28;20480;-68
2022/08/28 07:33:38;;;;;;;19.80;16.53;;;21.60;36.90;;;;;;4973854;28;20486;-66
2022/08/28 07:36:07;;;;;;;21.63;17.07;;;21.60;36.60;;;;;;4980454;28;20564;-68
2022/08/28 07:38:33;;;;;;;23.80;17.47;;;21.60;36.50;;;;;;4966451;28;20834;-69
2022/08/28 07:41:01;;;;;;;20.00;16.63;;;21.50;36.30;;;;;;4966157;28;20467;-68
2022/08/28 07:46:15;;;;;;;22.90;17.70;;;21.50;36.00;;;;;;4977336;28;20530;-68
2022/08/28 07:48:43;;;;;;;19.67;15.83;;;21.50;36.10;;;;;;4973788;28;20484;-67
2022/08/28 07:51:10;;;;;;;21.10;18.13;;;21.40;36.70;;;;;;4969553;28;20519;-63
2022/08/28 07:53:37;;;;;;;21.07;18.77;;;21.40;36.20;;;;;;4967029;28;21010;-65
2022/08/28 07:56:04;;;;;;;21.23;17.03;;;21.40;36.40;;;;;;4968855;28;20477;-65
2022/08/28 07:58:31;;;;;;;20.60;17.40;;;21.30;36.50;;;;;;4961073;28;20973;-64
2022/08/28 08:01:00;;;;;;;23.10;17.67;;;21.30;36.60;;;;;;4969936;28;20479;-70
2022/08/28 08:03:29;;;;;;;25.10;17.50;;;21.30;36.50;;;;;;4968574;28;21063;-68
2022/08/28 08:05:57;;;;;;;18.40;15.53;;;21.30;36.70;;;;;;4991761;28;20501;-64
2022/08/28 08:08:24;;;;;;;18.50;15.73;;;21.30;36.70;;;;;;4978169;28;20479;-66
2022/08/28 08:11:00;;;;;;;16.73;14.63;;;21.40;36.40;;;;;;4964792;28;20466;-63
2022/08/28 08:13:28;;;;;;;21.83;15.57;;;21.40;36.30;;;;;;5002188;28;20488;-65
2022/08/28 08:15:59;;;;;;;17.30;14.30;;;21.40;36.20;;;;;;4960548;28;21059;-64
2022/08/28 08:18:27;;;;;;;17.97;13.73;;;21.50;36.30;;;;;;4960714;28;20477;-64
2022/08/28 08:20:54;;;;;;;14.30;12.80;;;21.60;36.30;;;;;;4979465;28;20465;-63
2022/08/28 08:23:21;;;;;;;17.60;13.33;;;21.70;35.60;;;;;;4969228;28;20993;-63
2022/08/28 08:25:55;;;;;;;15.07;12.13;;;21.70;35.10;;;;;;4986870;28;20894;-66
2022/08/28 08:28:22;;;;;;;14.73;12.10;;;21.90;35.00;;;;;;4970042;28;20843;-68
2022/08/28 08:30:49;;;;;;;14.60;11.60;;;22.10;34.90;;;;;;4974177;28;20501;-70
2022/08/28 08:33:16;;;;;;;16.17;12.07;;;22.20;34.20;;;;;;4973836;28;20599;-70
2022/08/28 08:35:44;;;;;;;15.60;10.30;;;22.30;33.70;;;;;;4963749;28;20481;-70
2022/08/28 08:38:11;;;;;;;13.20;10.83;;;22.40;33.20;;;;;;4964317;28;20477;-71
2022/08/28 08:40:38;;;;;;;14.80;12.37;;;22.50;32.90;;;;;;4978211;28;20502;-65
2022/08/28 08:43:05;;;;;;;14.20;11.43;;;22.60;32.90;;;;;;4980971;28;20489;-69
2022/08/28 08:45:32;;;;;;;15.00;11.37;;;22.70;32.60;;;;;;4994683;28;20477;-68
2022/08/28 08:48:00;;;;;;;17.53;13.67;;;22.90;32.10;;;;;;4955649;28;20458;-74
2022/08/28 08:50:29;;;;;;;14.70;12.50;;;23.10;31.90;;;;;;4973265;28;20472;-69
2022/08/28 08:53:18;;;;;;;13.43;11.80;;;23.10;31.10;;;;;;4971225;28;20453;-68
2022/08/28 08:55:48;;;;;;;16.20;13.00;;;23.10;30.80;;;;;;4965325;28;20482;-69
2022/08/28 08:58:23;;;;;;;12.43;10.97;;;23.00;31.20;;;;;;4971397;28;20470;-70
2022/08/28 09:00:57;;;;;;;14.37;11.43;;;23.00;31.10;;;;;;4969567;28;20988;-68
2022/08/28 09:03:42;;;;;;;14.17;11.97;;;23.20;30.90;;;;;;4976810;28;20457;-68
2022/08/28 09:06:19;;;;;;;14.73;12.47;;;23.60;30.20;;;;;;4991526;28;20498;-69
2022/08/28 09:08:52;;;;;;;17.50;10.90;;;23.90;28.30;;;;;;4967900;28;20542;-67
2022/08/28 09:11:31;;;;;;;13.10;11.50;;;23.90;28.80;;;;;;4984945;28;20457;-66
2022/08/28 09:14:03;;;;;;;15.50;12.80;;;23.80;28.10;;;;;;4961794;28;20470;-67
2022/08/28 09:16:35;;;;;;;15.87;11.50;;;23.90;27.70;;;;;;4984208;28;20484;-66
2022/08/28 09:19:02;;;;;;;14.97;12.60;;;24.20;27.80;;;;;;4967469;28;20469;-67
2022/08/28 09:21:32;;;;;;;14.30;9.93;;;24.40;27.50;;;;;;4974445;28;20465;-66
2022/08/28 09:24:03;;;;;;;12.37;10.90;;;24.40;26.40;;;;;;4957745;28;20550;-68
2022/08/28 09:26:30;;;;;;;11.10;8.90;;;24.70;26.30;;;;;;4974846;28;20485;-67
2022/08/28 09:29:03;;;;;;;12.37;8.80;;;25.30;24.40;;;;;;4969132;28;21014;-69
2022/08/28 09:31:33;;;;;;;10.87;8.80;;;25.70;22.00;;;;;;4974731;28;20478;-64
2022/08/28 09:34:19;;;;;;;10.07;8.87;;;25.60;21.60;;;;;;4961081;28;20504;-71
2022/08/28 09:36:46;;;;;;;13.50;10.00;;;26.10;21.50;;;;;;4984186;28;20477;-73
2022/08/28 09:39:18;;;;;;;12.13;9.40;;;26.60;20.40;;;;;;4963071;28;20461;-72
2022/08/28 09:44:58;;;;;;;12.40;10.60;;;26.70;19.30;;;;;;4940573;28;20457;-72
2022/08/28 09:47:37;;;;;;;13.40;11.13;;;26.40;19.30;;;;;;4996004;28;20490;-70
2022/08/28 09:50:33;;;;;;;13.50;10.37;;;25.90;20.00;;;;;;4961874;28;20553;-76
2022/08/28 09:53:19;;;;;;;12.73;9.33;;;25.90;20.70;;;;;;4987948;28;20501;-75
2022/08/28 09:56:13;;;;;;;12.83;10.60;;;26.00;21.20;;;;;;4968245;28;20493;-75
2022/08/28 09:58:42;;;;;;;13.90;10.20;;;26.10;21.00;;;;;;4993636;28;20461;-75
2022/08/28 10:01:29;;;;;;;14.40;10.90;;;26.20;20.70;;;;;;4963680;28;20481;-72
2022/08/28 10:04:07;;;;;;;13.97;11.80;;;26.10;20.10;;;;;;4961942;28;20472;-73
2022/08/28 10:06:36;;;;;;;14.70;10.27;;;26.30;20.00;;;;;;4992243;28;20499;-74
2022/08/28 10:09:11;;;;;;;15.73;12.87;;;26.70;19.40;;;;;;4988842;28;20468;-74
2022/08/28 10:11:46;;;;;;;14.43;11.43;;;27.50;18.50;;;;;;4979884;28;20466;-75
2022/08/28 10:14:27;;;;;;;14.47;10.03;;;29.10;15.40;;;;;;4979499;28;20489;-73
2022/08/28 10:17:02;;;;;;;11.97;9.73;;;29.90;13.20;;;;;;4967527;28;20481;-71
2022/08/28 10:19:39;;;;;;;11.57;10.47;;;31.20;12.20;;;;;;4971867;28;20502;-74
2022/08/28 10:22:19;;;;;;;11.80;9.97;;;33.60;7.60;;;;;;4971762;28;20457;-74
2022/08/28 10:25:00;;;;;;;11.77;10.53;;;35.60;3.80;;;;;;4983986;28;20532;-74
2022/08/28 10:27:44;;;;;;;12.67;9.90;;;37.50;1.00;;;;;;4996575;28;20482;-75
2022/08/28 10:30:15;;;;;;;10.10;9.00;;;36.80;1.00;;;;;;4974374;28;20511;-74
2022/08/28 10:32:58;;;;;;;9.97;8.00;;;38.20;1.00;;;;;;4982594;28;20469;-71
2022/08/28 10:35:40;;;;;;;9.70;6.80;;;39.40;1.00;;;;;;4976311;28;20507;-70
2022/08/28 10:38:12;;;;;;;8.67;7.77;;;40.50;1.00;;;;;;4985198;28;20486;-75
2022/08/28 10:40:46;;;;;;;8.33;7.17;;;41.80;1.00;;;;;;4975001;28;21056;-74
2022/08/28 10:43:19;;;;;;;8.83;6.90;;;41.60;1.00;;;;;;4965468;28;20461;-77
2022/08/28 10:45:48;;;;;;;7.57;6.57;;;40.20;1.00;;;;;;5006653;28;20473;-86
2022/08/28 10:48:19;;;;;;;6.97;6.27;;;39.10;1.00;;;;;;4968440;28;20811;-76
2022/08/28 10:50:50;;;;;;;7.67;6.60;;;39.60;1.00;;;;;;4985995;28;20480;-76
2022/08/28 10:53:20;;;;;;;7.17;6.23;;;40.10;1.00;;;;;;4969230;28;20464;-84
2022/08/28 10:55:54;;;;;;;9.20;8.07;;;38.30;1.00;;;;;;4964853;28;20488;-78
2022/08/28 10:58:25;;;;;;;8.70;7.80;;;36.60;1.00;;;;;;4967961;28;20472;-77
2022/08/28 11:00:53;;;;;;;9.70;8.17;;;35.00;1.20;;;;;;4988080;28;20477;-76
2022/08/28 11:03:22;;;;;;;10.60;9.00;;;33.80;2.80;;;;;;4965850;28;20466;-73
2022/08/28 11:05:54;;;;;;;11.10;8.03;;;32.80;4.10;;;;;;4984926;28;20609;-75
2022/08/28 11:08:27;;;;;;;10.77;9.47;;;31.80;5.70;;;;;;4957283;28;20501;-72
2022/08/28 11:10:56;;;;;;;10.63;8.77;;;30.90;7.20;;;;;;4959181;28;20466;-72
2022/08/28 11:13:45;;;;;;;15.03;8.83;;;30.20;8.70;;;;;;4976439;28;21139;-76
2022/08/28 11:16:19;;;;;;;11.70;9.70;;;29.60;9.90;;;;;;4970145;28;20499;-70
2022/08/28 11:19:01;;;;;;;12.70;9.90;;;29.10;11.20;;;;;;4981601;28;20467;-69
2022/08/28 11:21:32;;;;;;;11.30;9.97;;;28.60;11.80;;;;;;4990634;28;20522;-65
2022/08/28 11:24:05;;;;;;;11.40;8.73;;;28.20;12.30;;;;;;4974415;28;21059;-64
2022/08/28 11:26:40;;;;;;;11.47;8.60;;;27.90;13.30;;;;;;4981714;28;20478;-64
2022/08/28 11:29:08;;;;;;;12.63;8.50;;;27.70;13.80;;;;;;4988972;28;20994;-64
2022/08/28 11:31:39;;;;;;;11.90;8.87;;;27.50;14.20;;;;;;4973364;28;20537;-65
2022/08/28 11:34:06;;;;;;;10.70;7.97;;;27.30;14.10;;;;;;4967653;28;20488;-65
2022/08/28 11:36:56;;;;;;;8.63;7.70;;;27.10;14.30;;;;;;4979288;28;20487;-64
2022/08/28 11:39:23;;;;;;;12.57;8.17;;;26.80;14.50;;;;;;4976840;28;20469;-64
2022/08/28 11:42:31;;;;;;;11.50;8.60;;;26.90;15.00;;;;;;4976257;28;20470;-65
2022/08/28 11:45:00;;;;;;;13.00;8.53;;;26.80;15.30;;;;;;4959475;28;20458;-65
2022/08/28 11:47:55;;;;;;;10.80;8.73;;;27.00;16.40;;;;;;4978088;28;20470;-64
2022/08/28 11:50:50;;;;;;;11.30;8.23;;;27.20;15.80;;;;;;4958776;28;20984;-64
2022/08/28 11:53:39;;;;;;;10.30;8.10;;;27.20;14.60;;;;;;4958895;28;20467;-64
2022/08/28 11:56:33;;;;;;;11.17;8.07;;;27.20;14.80;;;;;;4970493;28;20486;-64
2022/08/28 11:59:16;;;;;;;11.13;8.77;;;27.50;14.00;;;;;;4975628;28;20776;-65
2022/08/28 12:01:44;;;;;;;8.90;6.00;;;27.50;13.90;;;;;;4959588;28;20478;-65
2022/08/28 12:04:13;;;;;;;7.10;5.70;;;27.40;12.90;;;;;;4962807;28;21228;-65
2022/08/28 12:06:53;;;;;;;9.57;7.10;;;27.20;12.40;;;;;;4979512;28;20519;-65
2022/08/28 12:09:40;;;;;;;11.93;8.50;;;27.10;13.20;;;;;;4971706;28;20460;-65
2022/08/28 12:12:13;;;;;;;10.43;6.83;;;27.20;15.00;;;;;;4972067;28;20459;-65
2022/08/28 12:15:07;;;;;;;8.40;6.80;;;27.30;14.20;;;;;;4971764;28;20481;-64
2022/08/28 12:17:48;;;;;;;8.63;6.73;;;27.30;13.90;;;;;;4976836;28;21031;-64
2022/08/28 12:20:58;;;;;;;11.40;7.33;;;27.50;14.00;;;;;;4970221;28;20488;-64
2022/08/28 12:23:41;;;;;;;9.83;6.97;;;27.50;13.40;;;;;;4968730;28;20465;-64
2022/08/28 12:26:23;;;;;;;10.10;7.47;;;27.30;13.20;;;;;;4984964;28;20487;-64
2022/08/28 12:28:53;;;;;;;10.00;8.00;;;27.00;13.20;;;;;;4973187;28;20841;-65
2022/08/28 12:32:11;;;;;;;11.97;7.93;;;26.90;13.40;;;;;;4968580;28;20477;-64
2022/08/28 12:34:49;;;;;;;10.50;8.30;;;26.70;14.20;;;;;;4970426;28;20508;-64
2022/08/28 12:37:29;;;;;;;10.83;7.50;;;26.60;14.80;;;;;;4972114;28;20538;-64
2022/08/28 12:39:59;;;;;;;8.40;6.90;;;26.50;14.80;;;;;;4981575;28;21231;-65
2022/08/28 12:42:30;;;;;;;11.97;8.30;;;26.40;14.60;;;;;;4968727;28;20492;-64
2022/08/28 12:45:01;;;;;;;9.60;7.20;;;26.30;14.90;;;;;;4960426;28;20875;-63
2022/08/28 12:47:28;;;;;;;11.30;7.70;;;26.10;15.70;;;;;;4976558;28;20454;-64
2022/08/28 12:49:56;;;;;;;8.20;7.10;;;25.90;15.30;;;;;;4971535;28;20470;-64
2022/08/28 12:52:25;;;;;;;9.83;7.10;;;25.70;15.40;;;;;;4962934;28;20467;-64
2022/08/28 12:54:55;;;;;;;9.60;7.37;;;25.60;16.10;;;;;;4969116;28;20512;-70
2022/08/28 12:57:24;;;;;;;12.30;8.33;;;25.50;16.40;;;;;;4971587;28;20694;-64